Time;durP1;ratioP1;P1;durP2;ratioP2;P2;SDS_P1;SDS_P2;PMS_P1;PMS_P2;Temp;Humidity;BMP_temperature;BMP_pressure;BME280_temperature;BME280_humidity;BME280_pressure;Samples;Min_cycle;Max_cycle;Signal;HPM_P1;HPM_P2
2021/01/23 00:01:31;;;;;;;7.72;6.88;;;;;;;4.61;82.79;97092.22;4983865;28;20221;-80
2021/01/23 00:03:58;;;;;;;8.88;6.53;;;;;;;4.47;83.15;97093.22;4984667;28;20227;-80
2021/01/23 00:06:28;;;;;;;8.48;7.00;;;;;;;4.51;83.10;97099.16;4958011;28;20230;-78
2021/01/23 00:08:54;;;;;;;10.63;7.53;;;;;;;4.55;83.10;97098.00;4968776;28;20265;-79
2021/01/23 00:11:20;;;;;;;8.18;6.88;;;;;;;4.65;83.09;97102.53;4976641;28;20259;-79
2021/01/23 00:13:47;;;;;;;9.82;7.22;;;;;;;4.68;82.47;97096.94;4975982;28;20210;-79
2021/01/23 00:16:13;;;;;;;10.73;7.90;;;;;;;4.52;83.53;97091.09;4992632;28;20282;-79
2021/01/23 00:19:18;;;;;;;9.15;6.93;;;;;;;4.50;83.75;97087.66;4980425;28;20235;-77
2021/01/23 00:21:44;;;;;;;7.82;7.00;;;;;;;4.42;84.26;97083.88;4941944;28;20253;-78
2021/01/23 00:24:13;;;;;;;8.18;6.82;;;;;;;4.41;83.73;97088.34;4923205;28;20223;-79
2021/01/23 00:26:43;;;;;;;11.27;7.47;;;;;;;4.36;84.01;97092.31;4965399;28;20246;-79
2021/01/23 00:29:17;;;;;;;8.50;6.72;;;;;;;4.44;84.13;97100.59;4985096;28;20220;-78
2021/01/23 00:31:43;;;;;;;9.60;7.47;;;;;;;4.39;84.24;97103.59;4966160;28;20234;-79
2021/01/23 00:34:10;;;;;;;10.05;8.40;;;;;;;4.48;83.72;97110.06;4980897;28;21444;-78
2021/01/23 00:36:37;;;;;;;11.85;7.85;;;;;;;4.54;82.85;97099.78;4982953;28;20227;-79
2021/01/23 00:39:05;;;;;;;13.10;7.35;;;;;;;4.34;82.80;97107.53;4987880;28;20231;-76
2021/01/23 00:41:34;;;;;;;10.52;7.45;;;;;;;4.36;83.69;97117.09;4975107;28;20283;-76
2021/01/23 00:44:06;;;;;;;9.05;8.05;;;;;;;4.36;83.60;97122.41;4972168;28;20210;-77
2021/01/23 00:46:33;;;;;;;8.35;6.75;;;;;;;4.29;83.55;97118.50;4964037;28;20832;-78
2021/01/23 00:49:00;;;;;;;8.35;6.97;;;;;;;4.36;83.22;97117.09;4978213;28;20254;-78
2021/01/23 00:51:29;;;;;;;11.45;7.97;;;;;;;4.26;83.40;97115.22;4961084;28;20246;-77
2021/01/23 00:54:00;;;;;;;8.43;7.15;;;;;;;4.19;83.78;97114.81;4953817;28;20227;-79
2021/01/23 00:56:28;;;;;;;9.02;6.70;;;;;;;4.15;84.24;97110.69;4956923;28;20208;-77
2021/01/23 00:58:54;;;;;;;10.55;7.38;;;;;;;4.40;83.32;97110.59;4974568;28;20203;-78
2021/01/23 01:01:20;;;;;;;12.75;8.10;;;;;;;4.27;83.82;97107.13;4935932;28;20235;-78
2021/01/23 01:03:47;;;;;;;12.30;8.52;;;;;;;4.21;83.78;97126.19;4951353;23;20235;-80
2021/01/23 01:06:13;;;;;;;9.18;7.85;;;;;;;4.21;83.55;97123.53;4939155;28;20228;-79
2021/01/23 01:08:40;;;;;;;10.93;7.60;;;;;;;4.19;84.11;97130.78;4950871;28;20227;-80
2021/01/23 01:11:06;;;;;;;11.00;8.23;;;;;;;4.17;83.91;97131.84;4947205;28;20589;-81
2021/01/23 01:13:32;;;;;;;10.63;7.35;;;;;;;4.42;83.64;97129.94;4931741;28;20280;-81
2021/01/23 01:15:58;;;;;;;15.73;10.32;;;;;;;4.82;81.65;97131.38;4943506;28;20223;-78
2021/01/23 01:18:24;;;;;;;10.40;7.80;;;;;;;4.82;81.47;97123.38;4980644;28;20231;-80
2021/01/23 01:20:51;;;;;;;9.40;7.07;;;;;;;4.75;81.15;97122.16;4949762;28;20287;-79
2021/01/23 01:23:17;;;;;;;7.38;5.80;;;;;;;4.82;80.00;97125.22;4956252;28;20281;-78
2021/01/23 01:25:43;;;;;;;7.88;6.78;;;;;;;4.87;79.96;97123.91;4974806;28;20228;-82
2021/01/23 01:28:28;;;;;;;8.00;6.65;;;;;;;4.90;79.90;97128.16;4959464;28;20725;-80
2021/01/23 01:30:58;;;;;;;9.88;7.03;;;;;;;4.81;80.05;97135.00;4974739;28;20219;-80
2021/01/23 01:33:24;;;;;;;10.32;8.00;;;;;;;4.99;79.94;97140.75;4963115;28;20326;-80
2021/01/23 01:35:53;;;;;;;8.20;6.55;;;;;;;4.97;79.83;97140.03;4970356;28;20556;-79
2021/01/23 01:38:19;;;;;;;10.43;7.50;;;;;;;4.87;80.07;97145.19;4956665;28;20618;-79
2021/01/23 01:40:45;;;;;;;7.80;7.00;;;;;;;4.79;80.73;97144.94;4966803;28;20275;-79
2021/01/23 01:43:11;;;;;;;7.07;5.97;;;;;;;4.81;80.63;97140.31;4971901;28;20211;-77
2021/01/23 01:45:37;;;;;;;10.40;6.65;;;;;;;4.89;81.02;97148.59;4972459;28;20295;-77
2021/01/23 01:48:04;;;;;;;8.43;6.68;;;;;;;4.89;80.88;97145.94;4965586;28;20223;-76
2021/01/23 01:50:32;;;;;;;9.70;6.63;;;;;;;5.04;79.77;97154.59;4954784;28;20203;-81
2021/01/23 01:52:59;;;;;;;8.85;6.50;;;;;;;5.02;79.95;97149.41;4967347;28;20202;-81
2021/01/23 01:55:31;;;;;;;9.27;6.80;;;;;;;5.00;79.80;97148.66;4968203;28;20826;-85
2021/01/23 01:57:57;;;;;;;8.77;6.40;;;;;;;5.06;79.48;97150.84;4979981;28;20228;-81
2021/01/23 02:00:24;;;;;;;7.93;6.35;;;;;;;4.99;79.57;97148.75;4974105;28;20231;-80
2021/01/23 02:03:11;;;;;;;9.70;6.72;;;;;;;5.01;79.38;97153.00;4948196;28;20287;-80
2021/01/23 02:05:47;;;;;;;7.40;6.30;;;;;;;4.92;79.62;97158.16;4951660;28;20239;-80
2021/01/23 02:08:41;;;;;;;9.13;6.80;;;;;;;4.96;79.86;97173.81;4968836;28;21029;-79
2021/01/23 02:11:22;;;;;;;7.30;6.32;;;;;;;4.90;80.12;97165.44;4966971;28;20223;-78
2021/01/23 02:14:02;;;;;;;11.27;7.45;;;;;;;4.83;80.02;97165.03;4947107;28;20235;-79
2021/01/23 02:16:43;;;;;;;10.38;7.35;;;;;;;4.97;79.89;97156.88;4952515;28;20642;-80
2021/01/23 02:19:17;;;;;;;9.27;7.10;;;;;;;4.82;80.35;97165.16;4961117;28;20755;-80
2021/01/23 02:22:11;;;;;;;10.55;6.43;;;;;;;4.79;80.62;97168.88;4941931;28;20223;-80
2021/01/23 02:24:37;;;;;;;14.02;6.55;;;;;;;4.69;81.16;97167.84;4974857;28;20575;-79
2021/01/23 02:27:28;;;;;;;13.90;8.07;;;;;;;4.77;80.89;97180.59;4961785;28;20230;-78
2021/01/23 02:30:03;;;;;;;13.35;7.10;;;;;;;4.62;80.92;97166.59;4972765;28;20303;-76
2021/01/23 02:32:32;;;;;;;14.23;7.32;;;;;;;4.61;81.15;97169.41;4956594;28;20526;-81
2021/01/23 02:35:01;;;;;;;10.40;7.97;;;;;;;4.49;81.11;97181.75;4966014;28;20220;-81
2021/01/23 02:37:29;;;;;;;10.77;7.90;;;;;;;4.47;81.31;97177.50;4966217;28;20237;-79
2021/01/23 02:39:57;;;;;;;12.65;8.73;;;;;;;4.47;81.21;97182.81;4976239;28;20228;-76
2021/01/23 02:42:23;;;;;;;11.23;9.13;;;;;;;4.52;80.74;97186.00;4978478;28;20222;-78
2021/01/23 02:44:49;;;;;;;14.90;9.18;;;;;;;4.47;80.77;97186.34;4961592;28;20335;-77
2021/01/23 02:47:15;;;;;;;13.88;9.70;;;;;;;4.41;81.34;97181.47;4969092;28;20275;-78
2021/01/23 02:49:41;;;;;;;13.93;9.85;;;;;;;4.36;81.20;97174.78;4954761;28;20260;-78
2021/01/23 02:52:33;;;;;;;13.75;9.00;;;;;;;4.40;81.15;97182.44;4942521;28;20306;-79
2021/01/23 02:55:19;;;;;;;14.40;9.63;;;;;;;4.42;81.44;97190.31;4953487;28;20310;-80
2021/01/23 02:57:48;;;;;;;14.85;10.00;;;;;;;4.42;81.05;97185.81;4968467;28;20231;-82
2021/01/23 03:00:16;;;;;;;15.55;10.55;;;;;;;4.40;81.34;97185.09;4952968;28;20301;-81
2021/01/23 03:02:56;;;;;;;14.82;10.07;;;;;;;4.37;81.36;97185.28;4951555;28;20231;-81
2021/01/23 03:05:24;;;;;;;16.13;10.40;;;;;;;4.41;81.62;97192.09;4973550;28;20233;-78
2021/01/23 03:07:52;;;;;;;18.95;10.65;;;;;;;4.49;81.10;97195.06;4978312;28;20279;-81
2021/01/23 03:10:18;;;;;;;15.77;11.30;;;;;;;4.41;81.57;97194.78;4950256;28;20227;-81
2021/01/23 03:12:44;;;;;;;17.98;12.27;;;;;;;4.33;81.24;97191.81;4964742;28;20216;-82
2021/01/23 03:15:11;;;;;;;16.67;11.15;;;;;;;4.33;81.68;97191.81;4960884;28;20232;-81
2021/01/23 03:17:37;;;;;;;16.73;11.35;;;;;;;4.35;81.84;97199.66;4949384;28;21986;-80
2021/01/23 03:20:04;;;;;;;15.32;11.55;;;;;;;4.32;81.53;97206.09;4949278;28;20219;-80
2021/01/23 03:22:30;;;;;;;17.67;11.13;;;;;;;4.23;82.34;97201.41;4963574;28;20235;-82
2021/01/23 03:24:56;;;;;;;16.60;11.68;;;;;;;4.26;82.06;97201.19;4978072;28;20228;-81
2021/01/23 03:27:22;;;;;;;17.63;10.82;;;;;;;4.24;82.26;97211.06;4973210;28;20226;-79
2021/01/23 03:29:48;;;;;;;21.27;12.48;;;;;;;4.23;82.54;97205.88;4951761;28;20229;-78
2021/01/23 03:32:14;;;;;;;18.00;10.75;;;;;;;4.17;82.68;97214.28;4976968;28;20670;-79
2021/01/23 03:34:41;;;;;;;15.05;10.95;;;;;;;4.27;82.35;97212.66;4968459;28;20230;-79
2021/01/23 03:37:07;;;;;;;17.30;11.57;;;;;;;4.18;82.49;97213.31;4969986;28;20222;-79
2021/01/23 03:39:33;;;;;;;15.90;10.90;;;;;;;4.16;82.54;97215.25;4954209;28;20479;-80
2021/01/23 03:41:59;;;;;;;17.50;11.10;;;;;;;4.17;82.54;97212.47;4941716;28;20504;-80
2021/01/23 03:44:25;;;;;;;15.20;10.93;;;;;;;4.26;82.61;97222.47;4967506;28;20223;-80
2021/01/23 03:46:51;;;;;;;19.75;10.70;;;;;;;4.30;82.57;97217.78;4953971;28;20200;-81
2021/01/23 03:49:17;;;;;;;16.52;10.50;;;;;;;4.33;82.41;97222.88;4956135;28;20269;-82
2021/01/23 03:51:51;;;;;;;16.20;10.63;;;;;;;4.37;82.13;97222.53;4965585;28;20223;-80
2021/01/23 03:54:17;;;;;;;19.73;10.48;;;;;;;4.44;81.77;97226.47;4959930;28;20234;-82
2021/01/23 03:56:43;;;;;;;14.70;10.73;;;;;;;4.50;81.05;97225.19;4963650;28;20235;-81
2021/01/23 03:59:09;;;;;;;14.45;10.82;;;;;;;4.51;81.02;97225.09;4970838;28;20227;-80
2021/01/23 04:01:35;;;;;;;14.77;10.57;;;;;;;4.52;81.15;97218.81;4951178;28;20215;-80
2021/01/23 04:04:02;;;;;;;16.33;10.68;;;;;;;4.48;81.48;97204.00;4950366;28;20259;-80
2021/01/23 04:06:28;;;;;;;13.18;9.15;;;;;;;4.52;81.09;97208.16;4951987;28;20311;-80
2021/01/23 04:08:54;;;;;;;13.07;9.43;;;;;;;4.52;81.31;97205.50;4960410;28;20247;-78
2021/01/23 04:11:20;;;;;;;16.55;11.52;;;;;;;4.52;81.35;97202.84;4938983;28;21071;-81
2021/01/23 04:13:46;;;;;;;16.75;9.43;;;;;;;4.48;81.12;97193.38;4950598;28;20238;-80
2021/01/23 04:16:12;;;;;;;12.98;9.95;;;;;;;4.53;81.30;97201.00;4947921;28;20231;-80
2021/01/23 04:18:39;;;;;;;13.10;10.07;;;;;;;4.57;81.40;97200.69;4966548;28;20223;-81
2021/01/23 04:21:05;;;;;;;15.85;9.65;;;;;;;4.52;81.15;97197.53;4968705;28;20286;-81
2021/01/23 04:23:33;;;;;;;14.73;9.70;;;;;;;4.53;81.22;97198.34;4971145;28;20219;-81
2021/01/23 04:26:00;;;;;;;15.90;10.63;;;;;;;4.60;81.17;97195.16;4977111;28;20190;-77
2021/01/23 04:28:26;;;;;;;13.38;9.32;;;;;;;4.54;81.14;97198.25;4972104;28;20235;-78
2021/01/23 04:30:52;;;;;;;15.25;9.43;;;;;;;4.53;80.99;97193.03;4965386;28;20279;-78
2021/01/23 04:33:19;;;;;;;17.13;9.75;;;;;;;4.51;81.36;97195.81;4970962;28;20228;-79
2021/01/23 04:35:45;;;;;;;17.75;10.60;;;;;;;4.55;81.28;97197.28;4987386;28;20227;-78
2021/01/23 04:38:11;;;;;;;15.07;10.20;;;;;;;4.60;81.31;97189.81;4988082;28;20204;-77
2021/01/23 04:40:37;;;;;;;16.40;9.82;;;;;;;4.62;80.79;97190.56;4983777;28;20539;-77
2021/01/23 04:43:03;;;;;;;14.65;10.00;;;;;;;4.63;80.79;97191.41;4968682;28;20219;-78
2021/01/23 04:45:29;;;;;;;13.32;9.13;;;;;;;4.49;81.07;97189.75;4963280;28;20223;-79
2021/01/23 04:47:56;;;;;;;12.55;9.10;;;;;;;4.51;81.13;97192.31;4973192;28;20228;-78
2021/01/23 04:50:22;;;;;;;11.93;9.32;;;;;;;4.49;81.19;97197.72;4980127;28;20188;-79
2021/01/23 04:52:48;;;;;;;17.50;10.43;;;;;;;4.62;81.22;97192.38;4985058;28;20192;-79
2021/01/23 04:55:15;;;;;;;12.52;8.95;;;;;;;4.76;80.27;97190.38;4974032;28;20228;-80
2021/01/23 04:57:43;;;;;;;10.93;8.70;;;;;;;4.78;80.42;97191.16;4986959;28;20223;-79
2021/01/23 05:00:10;;;;;;;13.15;8.65;;;;;;;4.54;80.67;97179.63;5001622;28;20284;-78
2021/01/23 05:02:36;;;;;;;13.68;8.23;;;;;;;4.44;80.66;97183.06;4972163;28;20211;-77
2021/01/23 05:05:04;;;;;;;12.48;9.27;;;;;;;4.32;81.08;97184.81;4990189;28;20234;-77
2021/01/23 05:07:31;;;;;;;14.57;8.82;;;;;;;4.38;80.80;97179.03;4988294;28;20271;-77
2021/01/23 05:10:17;;;;;;;17.73;9.18;;;;;;;4.40;80.99;97177.13;4986767;28;20244;-78
2021/01/23 05:12:44;;;;;;;13.20;8.98;;;;;;;4.44;81.03;97175.91;4995716;28;20230;-79
2021/01/23 05:15:18;;;;;;;12.65;8.95;;;;;;;4.29;80.83;97184.16;4968345;28;20239;-79
2021/01/23 05:17:52;;;;;;;13.98;9.50;;;;;;;4.40;80.84;97171.78;4954357;28;20220;-79
2021/01/23 05:20:31;;;;;;;13.40;8.90;;;;;;;4.31;80.75;97182.25;4961620;28;20191;-81
2021/01/23 05:22:57;;;;;;;13.23;8.43;;;;;;;4.27;81.11;97186.06;4983360;28;20224;-78
2021/01/23 05:25:31;;;;;;;14.75;10.32;;;;;;;4.22;81.31;97181.09;4990901;28;20215;-78
2021/01/23 05:27:59;;;;;;;13.88;9.75;;;;;;;4.37;81.08;97169.34;4980586;28;20286;-78
2021/01/23 05:30:37;;;;;;;13.77;9.60;;;;;;;4.36;81.09;97167.63;4956044;28;20298;-76
2021/01/23 05:33:05;;;;;;;18.20;10.30;;;;;;;4.32;81.38;97181.28;4969046;28;20228;-78
2021/01/23 05:35:31;;;;;;;15.88;9.52;;;;;;;4.30;81.48;97181.38;4977689;28;20644;-81
2021/01/23 05:37:58;;;;;;;13.52;10.48;;;;;;;4.33;81.68;97175.84;4950534;28;20207;-80
2021/01/23 05:40:30;;;;;;;15.25;9.88;;;;;;;4.34;81.70;97180.22;4945806;28;20775;-80
2021/01/23 05:42:59;;;;;;;14.05;9.60;;;;;;;4.22;81.94;97189.06;4961571;28;20223;-79
2021/01/23 05:45:25;;;;;;;16.80;10.27;;;;;;;4.30;82.25;97178.72;4963197;28;20236;-80
2021/01/23 05:47:52;;;;;;;18.48;10.95;;;;;;;4.38;82.26;97173.72;4953933;28;20231;-81
2021/01/23 05:50:18;;;;;;;17.25;10.75;;;;;;;4.44;81.71;97173.25;4972374;28;20211;-80
2021/01/23 05:52:44;;;;;;;15.80;10.90;;;;;;;4.39;82.50;97175.41;4951445;28;20670;-79
2021/01/23 05:55:11;;;;;;;16.30;10.88;;;;;;;4.37;82.39;97179.16;4969946;28;20232;-80
2021/01/23 05:57:39;;;;;;;20.05;11.50;;;;;;;4.38;82.46;97181.72;4937724;28;20220;-79
2021/01/23 06:00:06;;;;;;;17.52;12.00;;;;;;;4.37;82.60;97184.47;4959556;28;20264;-79
2021/01/23 06:02:34;;;;;;;18.73;11.02;;;;;;;4.41;83.03;97183.25;4951740;28;20201;-79
2021/01/23 06:05:02;;;;;;;19.20;12.45;;;;;;;4.46;82.73;97187.31;4979874;28;20223;-81
2021/01/23 06:07:48;;;;;;;16.77;9.85;;;;;;;4.49;82.51;97186.25;4969124;28;20315;-79
2021/01/23 06:10:23;;;;;;;16.38;10.45;;;;;;;4.44;82.32;97189.22;4956424;28;20319;-79
2021/01/23 06:12:50;;;;;;;16.10;10.82;;;;;;;4.36;82.97;97188.91;4957652;28;20239;-81
2021/01/23 06:15:32;;;;;;;15.73;10.95;;;;;;;4.25;83.49;97188.81;4971895;28;20223;-81
2021/01/23 06:17:59;;;;;;;17.05;12.30;;;;;;;4.29;83.67;97184.16;4956338;28;20269;-79
2021/01/23 06:20:40;;;;;;;20.98;11.13;;;;;;;4.25;83.88;97188.00;4954845;28;20184;-78
2021/01/23 06:23:12;;;;;;;19.08;12.30;;;;;;;4.33;83.76;97180.31;4994292;28;20215;-80
2021/01/23 06:25:51;;;;;;;25.80;13.15;;;;;;;4.40;83.74;97181.56;4979916;28;20271;-82
2021/01/23 06:28:38;;;;;;;19.70;12.93;;;;;;;4.50;83.52;97175.47;4969207;28;20256;-82
2021/01/23 06:31:26;;;;;;;24.13;14.30;;;;;;;4.58;82.84;97170.47;4970094;28;20227;-81
2021/01/23 06:33:52;;;;;;;24.63;14.18;;;;;;;4.57;83.30;97168.75;4961209;28;20235;-82
2021/01/23 06:36:19;;;;;;;24.13;13.82;;;;;;;4.57;83.47;97168.75;4964790;28;20332;-81
2021/01/23 06:39:09;;;;;;;18.35;12.40;;;;;;;4.76;82.58;97168.25;4966258;28;20295;-79
2021/01/23 06:41:37;;;;;;;23.45;14.13;;;;;;;4.81;82.37;97160.78;4982503;28;20185;-77
2021/01/23 06:44:06;;;;;;;23.92;15.07;;;;;;;4.72;82.73;97159.66;4986250;28;20208;-78
2021/01/23 06:46:33;;;;;;;21.60;14.00;;;;;;;4.81;81.83;97160.78;4988757;28;20286;-78
2021/01/23 06:49:03;;;;;;;20.05;12.30;;;;;;;4.82;82.47;97155.34;4990214;28;20287;-79
2021/01/23 06:51:30;;;;;;;18.00;12.65;;;;;;;4.86;81.72;97159.47;4972297;28;20498;-77
2021/01/23 06:54:28;;;;;;;22.23;12.50;;;;;;;4.91;81.36;97152.00;4987741;28;20226;-78
2021/01/23 06:56:55;;;;;;;20.50;12.18;;;;;;;4.98;81.36;97145.25;4951289;28;20231;-81
2021/01/23 06:59:31;;;;;;;18.55;11.50;;;;;;;5.00;80.78;97156.63;4948986;28;20207;-81
2021/01/23 07:02:09;;;;;;;19.50;12.60;;;;;;;4.82;81.34;97158.00;4968896;28;20211;-79
2021/01/23 07:04:37;;;;;;;19.63;11.90;;;;;;;4.91;81.16;97145.81;4961299;28;20235;-81
2021/01/23 07:07:07;;;;;;;25.23;11.38;;;;;;;4.87;81.42;97161.19;4946622;28;20307;-77
2021/01/23 07:09:47;;;;;;;16.98;11.75;;;;;;;5.03;80.66;97158.22;4949988;28;20314;-80
2021/01/23 07:12:32;;;;;;;15.25;10.45;;;;;;;4.99;80.75;97160.28;4961152;28;20224;-81
2021/01/23 07:14:58;;;;;;;16.08;10.07;;;;;;;4.98;80.70;97158.56;4962144;28;20240;-80
2021/01/23 07:17:24;;;;;;;12.85;9.50;;;;;;;4.89;80.98;97161.91;4962111;28;20196;-77
2021/01/23 07:19:51;;;;;;;13.20;10.57;;;;;;;4.83;81.42;97151.72;4969324;28;20231;-80
2021/01/23 07:22:18;;;;;;;15.93;9.80;;;;;;;4.90;81.24;97154.78;4955782;28;20219;-80
2021/01/23 07:24:45;;;;;;;17.67;10.55;;;;;;;4.88;81.56;97154.88;4970234;28;20230;-82
2021/01/23 07:27:11;;;;;;;18.05;10.43;;;;;;;4.85;81.41;97156.91;4956271;28;20281;-80
2021/01/23 07:29:38;;;;;;;13.65;10.07;;;;;;;4.82;82.03;97147.34;4970429;28;20231;-78
2021/01/23 07:32:04;;;;;;;12.80;8.77;;;;;;;4.91;81.42;97151.16;4958326;28;20191;-82
2021/01/23 07:34:30;;;;;;;15.38;10.52;;;;;;;4.86;81.78;97148.84;4960597;28;20223;-81
2021/01/23 07:36:56;;;;;;;21.88;15.73;;;;;;;4.88;81.62;97149.56;4971207;28;20232;-78
2021/01/23 07:39:25;;;;;;;14.43;10.95;;;;;;;5.04;81.63;97150.13;4960269;28;20223;-77
2021/01/23 07:41:57;;;;;;;14.75;10.63;;;;;;;5.10;81.21;97152.34;4979857;28;20299;-79
2021/01/23 07:44:26;;;;;;;16.10;10.95;;;;;;;5.01;81.20;97142.34;4964839;28;20246;-78
2021/01/23 07:46:53;;;;;;;16.40;10.80;;;;;;;5.17;81.18;97139.38;4973420;28;20195;-83
2021/01/23 07:49:25;;;;;;;14.05;9.63;;;;;;;5.18;80.93;97147.28;4958711;28;20231;-76
2021/01/23 07:52:03;;;;;;;14.18;10.25;;;;;;;5.23;80.32;97138.94;4963936;28;20222;-81
2021/01/23 07:54:30;;;;;;;19.45;10.63;;;;;;;5.31;80.54;97140.03;4954923;29;20313;-79
2021/01/23 07:56:57;;;;;;;13.68;10.07;;;;;;;5.26;80.49;97144.88;4955235;28;20250;-78
2021/01/23 07:59:41;;;;;;;13.85;9.95;;;;;;;5.23;80.90;97141.59;4970547;28;20196;-79
2021/01/23 08:02:07;;;;;;;16.77;10.13;;;;;;;5.37;80.50;97139.59;4964548;28;20242;-79
2021/01/23 08:04:35;;;;;;;14.25;9.55;;;;;;;5.38;80.30;97137.78;4938871;28;20306;-80
2021/01/23 08:07:29;;;;;;;12.82;10.20;;;;;;;5.45;80.15;97133.69;4961143;28;20938;-81
2021/01/23 08:10:23;;;;;;;12.07;8.48;;;;;;;5.27;80.50;97127.91;4967883;28;20302;-80
2021/01/23 08:13:00;;;;;;;15.65;9.38;;;;;;;5.35;80.45;97124.69;4978859;28;20232;-80
2021/01/23 08:15:29;;;;;;;17.98;9.57;;;;;;;5.33;81.20;97124.78;4962620;28;20207;-78
2021/01/23 08:17:56;;;;;;;15.80;9.30;;;;;;;5.43;80.74;97123.13;4998695;28;20279;-77
2021/01/23 08:20:37;;;;;;;18.40;11.10;;;;;;;5.51;79.92;97123.38;4990426;28;20297;-77
2021/01/23 08:23:10;;;;;;;11.57;8.30;;;;;;;5.43;80.13;97123.13;4988107;28;20211;-80
2021/01/23 08:25:47;;;;;;;13.40;8.82;;;;;;;5.29;80.68;97128.66;4952669;28;20222;-79
2021/01/23 08:28:16;;;;;;;14.70;8.48;;;;;;;5.61;79.55;97132.38;4963755;28;20220;-80
2021/01/23 08:30:43;;;;;;;14.50;9.40;;;;;;;5.61;80.10;97127.03;4970557;28;20240;-80
2021/01/23 08:33:12;;;;;;;13.27;9.75;;;;;;;5.66;79.75;97124.88;4950241;28;20233;-79
2021/01/23 08:35:42;;;;;;;16.45;8.90;;;;;;;5.52;79.58;97125.06;4970453;28;20234;-79
2021/01/23 08:38:09;;;;;;;12.18;9.18;;;;;;;5.56;79.90;97123.88;4953441;28;20192;-81
2021/01/23 08:40:38;;;;;;;14.05;9.10;;;;;;;5.63;79.37;97125.09;4968284;28;20220;-81
2021/01/23 08:43:04;;;;;;;12.10;8.30;;;;;;;5.59;79.77;97123.63;4968764;28;20695;-80
2021/01/23 08:45:33;;;;;;;14.40;8.88;;;;;;;5.81;78.63;97129.03;4939556;28;20305;-80
2021/01/23 08:48:00;;;;;;;11.98;7.88;;;;;;;5.77;78.32;97122.19;4969457;28;20293;-79
2021/01/23 08:50:26;;;;;;;10.15;7.47;;;;;;;5.72;78.49;97118.22;4951708;28;20195;-79
2021/01/23 08:52:52;;;;;;;14.75;8.60;;;;;;;5.63;79.09;97117.09;4957492;28;20196;-78
2021/01/23 08:55:19;;;;;;;11.95;7.53;;;;;;;5.62;79.28;97122.53;4967088;28;20611;-78
2021/01/23 08:57:45;;;;;;;10.70;7.35;;;;;;;5.71;78.62;97117.34;4950440;28;20232;-78
2021/01/23 09:00:17;;;;;;;10.63;7.10;;;;;;;5.56;78.96;97117.69;4967529;28;20303;-79
2021/01/23 09:02:43;;;;;;;11.48;6.75;;;;;;;5.53;79.49;97118.75;4969784;28;20669;-79
2021/01/23 09:05:11;;;;;;;11.73;6.65;;;;;;;5.45;79.05;97129.19;4951508;28;20223;-78
2021/01/23 09:07:40;;;;;;;9.35;6.18;;;;;;;5.29;79.46;97125.13;4936889;28;20221;-79
2021/01/23 09:10:10;;;;;;;8.43;5.75;;;;;;;5.32;79.43;97122.25;4937712;28;20232;-80
2021/01/23 09:12:38;;;;;;;10.07;6.88;;;;;;;5.40;78.96;97120.69;4949101;29;20761;-79
2021/01/23 09:15:06;;;;;;;7.93;5.85;;;;;;;5.49;78.50;97117.31;4956050;28;20298;-80
2021/01/23 09:17:32;;;;;;;10.48;6.28;;;;;;;5.59;78.46;97118.28;4969260;28;20255;-81
2021/01/23 09:19:59;;;;;;;8.35;5.75;;;;;;;5.53;78.74;97116.09;4959046;28;20234;-79
2021/01/23 09:22:26;;;;;;;8.73;6.15;;;;;;;5.50;78.59;97124.34;4977239;28;20223;-78
2021/01/23 09:24:52;;;;;;;6.95;5.00;;;;;;;5.51;78.59;97117.22;4989162;28;20227;-79
2021/01/23 09:27:18;;;;;;;7.35;5.05;;;;;;;5.48;78.36;97112.09;4970059;28;20287;-78
2021/01/23 09:29:44;;;;;;;10.95;4.93;;;;;;;5.48;78.21;97112.09;4967300;28;20253;-76
2021/01/23 09:32:10;;;;;;;8.57;5.82;;;;;;;5.53;77.99;97104.59;4960909;28;20187;-76
2021/01/23 09:34:37;;;;;;;5.60;5.05;;;;;;;5.58;77.79;97111.28;4974427;28;20281;-77
2021/01/23 09:37:04;;;;;;;6.88;4.93;;;;;;;5.60;78.09;97114.69;4960679;28;20311;-85
2021/01/23 09:39:31;;;;;;;5.43;4.40;;;;;;;5.52;78.08;97110.91;4947033;28;20237;-79
2021/01/23 09:41:58;;;;;;;7.57;4.55;;;;;;;5.43;78.28;97107.13;4967054;28;20231;-78
2021/01/23 09:44:25;;;;;;;6.95;5.47;;;;;;;5.50;78.02;97103.03;4999092;28;20226;-78
2021/01/23 09:46:52;;;;;;;5.45;4.40;;;;;;;5.50;77.60;97099.50;4971969;28;20219;-78
2021/01/23 09:49:18;;;;;;;6.55;5.28;;;;;;;5.62;77.79;97094.09;4987733;28;20247;-78
2021/01/23 09:51:44;;;;;;;6.22;4.95;;;;;;;5.51;76.97;97086.06;4962118;28;20222;-81
2021/01/23 09:54:10;;;;;;;7.03;5.35;;;;;;;5.68;77.12;97086.44;4950240;28;20314;-81
2021/01/23 09:56:36;;;;;;;8.05;5.60;;;;;;;5.62;77.06;97091.41;4951534;28;20200;-80
2021/01/23 09:59:03;;;;;;;6.68;4.60;;;;;;;5.78;76.75;97078.56;4968368;28;20203;-81
2021/01/23 10:01:29;;;;;;;8.52;4.80;;;;;;;5.79;76.90;97082.97;4949566;28;20690;-81
2021/01/23 10:03:56;;;;;;;8.15;4.38;;;;;;;5.74;76.02;97079.78;4971599;28;20246;-80
2021/01/23 10:06:23;;;;;;;8.88;4.93;;;;;;;5.69;76.98;97076.63;4964822;28;20219;-78
2021/01/23 10:08:50;;;;;;;7.45;4.68;;;;;;;5.62;76.87;97071.91;4974498;28;20232;-78
2021/01/23 10:11:16;;;;;;;7.30;4.75;;;;;;;5.68;77.06;97070.44;4963435;28;20203;-77
2021/01/23 10:13:42;;;;;;;6.47;4.88;;;;;;;5.74;75.82;97067.28;4973167;28;20227;-77
2021/01/23 10:16:08;;;;;;;8.65;4.40;;;;;;;5.63;75.90;97065.59;4954202;28;20231;-80
2021/01/23 10:18:37;;;;;;;6.93;3.88;;;;;;;5.74;76.09;97063.78;4961008;28;20230;-84
2021/01/23 10:21:04;;;;;;;6.88;4.45;;;;;;;5.78;74.83;97057.22;4950902;28;20739;-81
2021/01/23 10:23:31;;;;;;;6.10;4.88;;;;;;;5.85;74.69;97058.47;4963322;28;20215;-79
2021/01/23 10:25:57;;;;;;;13.32;6.63;;;;;;;6.03;74.12;97046.34;4988514;28;20694;-77
2021/01/23 10:28:23;;;;;;;5.72;3.58;;;;;;;5.69;74.16;97049.97;4986956;28;20216;-77
2021/01/23 10:30:50;;;;;;;7.78;4.15;;;;;;;5.71;74.78;97042.69;4979171;28;20315;-79
2021/01/23 10:33:16;;;;;;;6.60;3.75;;;;;;;5.81;74.29;97037.50;4974178;28;20234;-82
2021/01/23 10:35:43;;;;;;;5.20;3.58;;;;;;;5.84;73.96;97039.94;4982762;28;20271;-80
2021/01/23 10:38:09;;;;;;;4.47;3.50;;;;;;;5.79;73.69;97040.28;5005897;28;20674;-78
2021/01/23 10:40:35;;;;;;;6.18;4.50;;;;;;;5.65;73.79;97032.50;4975882;28;20271;-78
2021/01/23 10:43:02;;;;;;;7.40;3.97;;;;;;;5.66;73.75;97026.25;4960246;28;20215;-79
2021/01/23 10:45:28;;;;;;;8.18;4.30;;;;;;;5.74;73.46;97021.97;4976735;28;20223;-79
2021/01/23 10:47:54;;;;;;;4.45;3.17;;;;;;;5.72;73.06;97023.91;4955139;28;20307;-79
2021/01/23 10:50:20;;;;;;;8.57;3.17;;;;;;;5.74;73.45;97021.13;4984097;28;20187;-78
2021/01/23 10:52:47;;;;;;;4.35;3.53;;;;;;;5.82;73.11;97010.72;4971262;28;20197;-81
2021/01/23 10:55:14;;;;;;;6.43;4.60;;;;;;;5.86;72.98;97009.53;4967283;28;20227;-81
2021/01/23 10:57:40;;;;;;;9.00;3.70;;;;;;;5.96;72.34;97004.31;4962359;28;20247;-81
2021/01/23 11:00:08;;;;;;;6.95;5.25;;;;;;;6.17;72.28;97003.38;4955956;28;20267;-81
2021/01/23 11:02:39;;;;;;;6.65;4.18;;;;;;;6.20;71.75;96995.16;4939439;28;20267;-81
2021/01/23 11:05:10;;;;;;;9.43;3.58;;;;;;;6.22;71.87;97001.19;4964955;28;20231;-82
2021/01/23 11:07:53;;;;;;;5.80;3.65;;;;;;;6.17;71.05;96995.38;4950805;28;20239;-80
2021/01/23 11:10:20;;;;;;;6.20;3.72;;;;;;;6.28;71.14;96984.69;4952960;28;20224;-83
2021/01/23 11:12:46;;;;;;;4.18;3.75;;;;;;;6.37;70.56;96989.28;4984893;28;20729;-80
2021/01/23 11:15:15;;;;;;;4.95;3.70;;;;;;;6.44;70.09;96985.94;4963082;28;20224;-80
2021/01/23 11:17:47;;;;;;;3.70;3.40;;;;;;;6.56;69.31;96981.44;4986767;28;20246;-79
2021/01/23 11:20:14;;;;;;;4.35;3.30;;;;;;;6.31;68.78;96984.44;4977228;28;20247;-81
2021/01/23 11:22:40;;;;;;;4.22;3.80;;;;;;;6.09;69.98;96981.81;4968543;28;20229;-80
2021/01/23 11:25:07;;;;;;;5.53;3.28;;;;;;;6.11;69.65;96975.41;4960627;28;20659;-81
2021/01/23 11:27:34;;;;;;;5.57;3.60;;;;;;;6.06;69.98;96985.59;4948464;28;20274;-81
2021/01/23 11:30:00;;;;;;;4.93;3.67;;;;;;;6.22;70.04;96979.84;4966358;28;20319;-80
2021/01/23 11:32:28;;;;;;;6.53;3.47;;;;;;;6.31;69.66;96979.94;4949506;28;20210;-85
2021/01/23 11:34:55;;;;;;;6.43;3.42;;;;;;;6.00;70.14;96972.75;4977775;28;20262;-78
2021/01/23 11:37:21;;;;;;;4.15;3.72;;;;;;;5.98;70.49;96966.69;4968433;28;20217;-78
2021/01/23 11:39:47;;;;;;;5.15;3.65;;;;;;;6.06;70.54;96968.75;4969362;28;20299;-79
2021/01/23 11:42:13;;;;;;;3.97;3.03;;;;;;;6.13;70.45;96969.94;4976549;28;20257;-79
2021/01/23 11:44:39;;;;;;;5.18;3.90;;;;;;;6.09;70.51;96961.34;4986250;28;20243;-80